Time;durP1;ratioP1;P1;durP2;ratioP2;P2;SDS_P1;SDS_P2;PMS_P1;PMS_P2;Temp;Humidity;BMP_temperature;BMP_pressure;BME280_temperature;BME280_humidity;BME280_pressure;Samples;Min_cycle;Max_cycle;Signal;HPM_P1;HPM_P2
2022/04/30 00:02:06;;;;;;;6.50;4.20;;;15.30;34.30;;;;;;5053760;28;20187;-31
2022/04/30 00:04:37;;;;;;;8.82;5.43;;;15.20;34.50;;;;;;5053867;28;20158;-31
2022/04/30 00:07:03;;;;;;;7.35;5.45;;;15.20;34.50;;;;;;5054066;28;20181;-31
2022/04/30 00:09:30;;;;;;;8.23;4.90;;;15.20;34.40;;;;;;5054158;28;20195;-31
2022/04/30 00:11:57;;;;;;;11.07;5.50;;;15.20;34.40;;;;;;5053558;28;20176;-31
2022/04/30 00:14:23;;;;;;;4.18;3.78;;;15.20;34.80;;;;;;5053730;28;20232;-32
2022/04/30 00:16:49;;;;;;;5.72;4.60;;;15.10;34.50;;;;;;5053871;28;20213;-32
2022/04/30 00:19:15;;;;;;;7.50;5.10;;;15.20;34.20;;;;;;5053629;28;20524;-31
2022/04/30 00:21:41;;;;;;;8.60;5.47;;;15.10;34.50;;;;;;5053582;28;20197;-31
2022/04/30 00:24:07;;;;;;;6.13;4.40;;;15.90;34.80;;;;;;5053584;28;20169;-32
2022/04/30 00:26:33;;;;;;;7.63;4.67;;;15.10;34.60;;;;;;5053888;28;20181;-31
2022/04/30 00:29:00;;;;;;;7.30;5.10;;;15.10;34.60;;;;;;5053422;28;20991;-31
2022/04/30 00:31:26;;;;;;;7.43;4.50;;;15.10;34.70;;;;;;5051951;28;21008;-31
2022/04/30 00:33:52;;;;;;;9.57;5.30;;;15.00;34.40;;;;;;5053492;28;20185;-31
2022/04/30 00:36:18;;;;;;;5.40;4.70;;;15.00;34.40;;;;;;5053232;28;20598;-31
2022/04/30 00:38:44;;;;;;;5.67;5.03;;;15.00;34.20;;;;;;5053390;28;20184;-31
2022/04/30 00:41:10;;;;;;;11.97;6.67;;;14.90;34.60;;;;;;5052953;28;20189;-32
2022/04/30 00:43:50;;;;;;;5.63;4.30;;;14.90;34.80;;;;;;5053257;28;20172;-31
2022/04/30 00:46:18;;;;;;;10.05;5.93;;;14.90;34.70;;;;;;5053348;28;20184;-31
2022/04/30 00:48:44;;;;;;;7.95;4.60;;;15.80;35.10;;;;;;5052622;28;20181;-31
2022/04/30 00:51:15;;;;;;;5.55;4.60;;;14.80;34.70;;;;;;5052649;28;20186;-31
2022/04/30 00:53:45;;;;;;;6.65;4.70;;;14.80;34.70;;;;;;5052960;28;20640;-31
2022/04/30 00:56:12;;;;;;;6.78;4.13;;;14.80;34.50;;;;;;5052864;28;20214;-32
2022/04/30 00:58:42;;;;;;;8.13;5.35;;;14.70;34.70;;;;;;5053196;28;20290;-32
2022/04/30 01:01:08;;;;;;;5.75;4.20;;;14.70;34.70;;;;;;5052470;28;20211;-31
2022/04/30 01:03:34;;;;;;;6.45;5.25;;;14.60;34.90;;;;;;5053018;28;20169;-31
2022/04/30 01:06:01;;;;;;;5.83;4.23;;;14.60;34.60;;;;;;5051322;28;20307;-31
2022/04/30 01:08:28;;;;;;;7.25;5.32;;;14.60;34.80;;;;;;5026581;28;20169;-31
2022/04/30 01:11:00;;;;;;;6.28;4.05;;;14.60;35.00;;;;;;5052582;28;20197;-31
2022/04/30 01:13:32;;;;;;;7.53;4.40;;;14.60;34.80;;;;;;5052664;28;20169;-32
2022/04/30 01:15:59;;;;;;;6.72;3.97;;;14.50;34.80;;;;;;5052626;28;20188;-32
2022/04/30 01:18:26;;;;;;;9.32;4.68;;;14.50;34.90;;;;;;5052869;28;20176;-32
2022/04/30 01:20:56;;;;;;;9.02;5.95;;;14.50;34.80;;;;;;5052147;28;20671;-31
2022/04/30 01:23:23;;;;;;;7.55;6.25;;;14.40;34.80;;;;;;5052431;28;20268;-31
2022/04/30 01:25:50;;;;;;;7.10;5.38;;;14.40;35.60;;;;;;5052685;28;20177;-31
2022/04/30 01:28:18;;;;;;;6.70;4.88;;;14.50;34.90;;;;;;5052655;28;20177;-31
2022/04/30 01:30:44;;;;;;;5.70;4.60;;;14.50;35.10;;;;;;5052023;28;20197;-31
2022/04/30 01:38:31;;;;;;;5.25;4.20;;;14.40;34.80;;;;;;5052272;28;20556;-31
2022/04/30 01:40:57;;;;;;;4.93;4.40;;;14.40;35.20;;;;;;5051646;28;20204;-31
2022/04/30 01:43:24;;;;;;;6.88;4.07;;;14.30;35.40;;;;;;5051751;28;20184;-31
2022/04/30 01:45:50;;;;;;;7.28;5.72;;;14.30;35.40;;;;;;5052168;28;20196;-31
2022/04/30 01:48:17;;;;;;;8.60;5.65;;;14.20;35.50;;;;;;5051590;28;20272;-31
2022/04/30 01:50:43;;;;;;;10.02;5.00;;;14.20;35.70;;;;;;5051628;28;20280;-31
2022/04/30 01:53:09;;;;;;;5.70;3.72;;;14.20;35.60;;;;;;5052299;28;20173;-31
2022/04/30 01:55:36;;;;;;;6.93;5.22;;;14.10;35.60;;;;;;5053206;28;20200;-32
2022/04/30 01:58:03;;;;;;;6.45;4.32;;;14.10;35.40;;;;;;5052176;28;20254;-31
2022/04/30 02:00:29;;;;;;;7.60;5.30;;;14.10;35.40;;;;;;5034121;28;20212;-31
2022/04/30 02:03:06;;;;;;;5.88;4.30;;;14.10;35.80;;;;;;5052716;28;20173;-31
2022/04/30 02:05:32;;;;;;;6.78;4.45;;;14.00;35.70;;;;;;5052339;28;20161;-31
2022/04/30 02:08:03;;;;;;;8.18;5.30;;;14.00;35.80;;;;;;5051827;28;20177;-31
2022/04/30 02:10:30;;;;;;;5.53;4.20;;;13.90;36.10;;;;;;5051635;28;20281;-31
2022/04/30 02:12:56;;;;;;;9.85;5.47;;;13.80;36.30;;;;;;5051766;28;20173;-31
2022/04/30 02:15:23;;;;;;;4.90;3.72;;;13.80;36.30;;;;;;5051696;28;20181;-31
2022/04/30 02:17:50;;;;;;;5.90;4.05;;;13.70;36.10;;;;;;5050391;28;20217;-31
2022/04/30 02:20:25;;;;;;;8.00;4.82;;;13.70;36.30;;;;;;5051701;28;20197;-31
2022/04/30 02:22:54;;;;;;;7.07;4.82;;;13.70;36.40;;;;;;5051781;28;20204;-31
2022/04/30 02:25:21;;;;;;;8.45;4.63;;;13.60;37.00;;;;;;5051678;28;20174;-31
2022/04/30 02:27:50;;;;;;;7.35;4.75;;;13.50;36.50;;;;;;5051633;28;20259;-31
2022/04/30 02:30:17;;;;;;;5.72;4.20;;;13.50;36.50;;;;;;5051896;28;20197;-31
2022/04/30 02:32:48;;;;;;;5.40;3.60;;;13.50;36.80;;;;;;5051482;28;20563;-31
2022/04/30 02:35:26;;;;;;;4.93;3.78;;;13.50;37.00;;;;;;5051855;28;20184;-31
2022/04/30 02:37:54;;;;;;;5.25;3.72;;;13.40;36.80;;;;;;5052221;28;20196;-32
2022/04/30 02:40:22;;;;;;;8.38;4.10;;;13.40;37.10;;;;;;5052004;28;20254;-31
2022/04/30 02:42:51;;;;;;;4.70;4.05;;;13.40;37.00;;;;;;5050075;28;20790;-32
2022/04/30 02:45:17;;;;;;;5.53;4.00;;;13.30;37.30;;;;;;5051208;28;20647;-31
2022/04/30 02:47:45;;;;;;;5.10;4.18;;;13.30;37.40;;;;;;5051260;28;20173;-31
2022/04/30 02:50:15;;;;;;;8.07;4.53;;;13.30;37.50;;;;;;5051389;28;20203;-32
2022/04/30 02:52:42;;;;;;;6.60;4.95;;;13.30;37.50;;;;;;5051190;28;20250;-32
2022/04/30 02:55:09;;;;;;;5.28;3.85;;;13.20;37.60;;;;;;5053451;28;20678;-31
2022/04/30 03:00:38;;;;;;;4.72;3.80;;;13.20;37.30;;;;;;5055088;28;20250;-32
2022/04/30 03:03:04;;;;;;;8.45;3.75;;;13.20;37.70;;;;;;5055055;28;20706;-32
2022/04/30 03:05:31;;;;;;;5.97;4.37;;;13.20;37.70;;;;;;5055442;28;20267;-31
2022/04/30 03:07:58;;;;;;;5.18;4.45;;;13.10;37.50;;;;;;5055313;28;20185;-31
2022/04/30 03:10:24;;;;;;;6.32;4.40;;;13.20;37.70;;;;;;5054902;28;20205;-31
2022/04/30 03:12:50;;;;;;;6.50;3.90;;;13.10;37.70;;;;;;5054995;28;20630;-31
2022/04/30 03:15:19;;;;;;;7.87;4.60;;;13.10;37.80;;;;;;5054970;28;20250;-31
2022/04/30 03:23:14;;;;;;;8.63;4.65;;;13.00;37.90;;;;;;5055119;28;20211;-31
2022/04/30 03:25:40;;;;;;;8.40;4.43;;;13.00;38.10;;;;;;5054792;28;20207;-31
2022/04/30 03:28:06;;;;;;;9.43;5.40;;;13.00;38.20;;;;;;5054270;28;20193;-31
2022/04/30 03:30:32;;;;;;;6.97;4.40;;;13.00;38.20;;;;;;5054442;28;20544;-32
2022/04/30 03:32:57;;;;;;;8.20;4.67;;;12.90;38.30;;;;;;5054697;28;20432;-31
2022/04/30 03:35:23;;;;;;;8.57;4.17;;;12.90;38.20;;;;;;5054703;28;20650;-31
2022/04/30 03:37:49;;;;;;;6.23;3.93;;;12.90;38.10;;;;;;5054526;28;20201;-31
2022/04/30 03:40:15;;;;;;;7.60;4.80;;;12.90;38.00;;;;;;5054421;28;20967;-31
2022/04/30 03:42:41;;;;;;;6.80;4.30;;;12.90;38.10;;;;;;5054219;28;20975;-31
2022/04/30 03:45:07;;;;;;;5.10;3.67;;;12.90;38.00;;;;;;5054301;28;20165;-31
2022/04/30 03:47:32;;;;;;;5.53;4.05;;;12.80;38.00;;;;;;5054249;28;20182;-31
2022/04/30 03:50:01;;;;;;;7.30;4.43;;;12.80;38.20;;;;;;5054252;28;20266;-31
2022/04/30 03:52:27;;;;;;;5.68;4.78;;;12.70;38.10;;;;;;5053960;28;20650;-31
2022/04/30 03:54:52;;;;;;;5.47;3.93;;;12.70;38.00;;;;;;5054244;28;20178;-31
2022/04/30 03:57:18;;;;;;;9.53;5.00;;;12.70;38.30;;;;;;5053998;28;20201;-31
2022/04/30 03:59:45;;;;;;;4.37;3.93;;;12.60;38.50;;;;;;5053835;28;20200;-31
2022/04/30 04:02:11;;;;;;;6.75;4.60;;;12.60;38.30;;;;;;5054069;28;20241;-31
2022/04/30 04:04:36;;;;;;;4.97;3.53;;;12.60;38.40;;;;;;5054090;28;20204;-31
2022/04/30 04:07:02;;;;;;;6.20;4.13;;;12.60;38.00;;;;;;5053741;28;20175;-31
2022/04/30 04:09:28;;;;;;;4.37;3.23;;;12.60;38.30;;;;;;5053832;28;20184;-31
2022/04/30 04:11:53;;;;;;;5.70;4.83;;;12.60;38.30;;;;;;5053545;28;20416;-31
2022/04/30 04:17:38;;;;;;;5.78;3.88;;;12.60;38.60;;;;;;5011566;28;20252;-31
2022/04/30 04:20:09;;;;;;;6.05;4.47;;;12.60;38.80;;;;;;5011571;28;20244;-31
2022/04/30 04:22:35;;;;;;;4.18;3.78;;;12.60;38.70;;;;;;5011354;28;20678;-31
2022/04/30 04:27:47;;;;;;;3.95;3.55;;;12.60;38.50;;;;;;5011784;28;20565;-31
2022/04/30 04:30:12;;;;;;;5.87;4.00;;;12.70;38.60;;;;;;5011414;28;20194;-31
2022/04/30 04:32:38;;;;;;;6.27;3.53;;;12.70;38.80;;;;;;5011102;28;20174;-31
2022/04/30 04:35:04;;;;;;;6.00;4.23;;;12.70;38.90;;;;;;5011258;28;20175;-31
2022/04/30 04:37:31;;;;;;;6.80;4.50;;;12.70;38.90;;;;;;5011305;28;20206;-31
2022/04/30 04:39:57;;;;;;;7.15;4.30;;;12.80;39.20;;;;;;5011141;28;20198;-31
2022/04/30 04:42:23;;;;;;;6.80;4.87;;;12.80;39.30;;;;;;5010960;28;20190;-32
2022/04/30 04:44:49;;;;;;;6.30;4.07;;;12.80;39.20;;;;;;5011198;28;20201;-31
2022/04/30 04:47:15;;;;;;;7.03;4.57;;;12.80;39.20;;;;;;5016619;28;20237;-31
2022/04/30 04:49:42;;;;;;;5.90;3.70;;;12.90;39.00;;;;;;5053065;28;20185;-31
2022/04/30 04:52:11;;;;;;;5.00;4.50;;;12.90;39.00;;;;;;5053016;28;20157;-31
2022/04/30 04:54:37;;;;;;;6.60;4.85;;;12.90;39.00;;;;;;5052794;28;20177;-31
2022/04/30 04:57:03;;;;;;;4.40;3.20;;;12.90;39.40;;;;;;5051561;28;20208;-31
2022/04/30 04:59:28;;;;;;;6.55;4.22;;;12.90;39.40;;;;;;5052683;28;20169;-32
2022/04/30 05:01:54;;;;;;;9.73;4.53;;;13.00;39.30;;;;;;5052572;28;20188;-31
2022/04/30 05:04:20;;;;;;;10.70;4.20;;;13.10;39.40;;;;;;5052889;28;20173;-31
2022/04/30 05:06:48;;;;;;;5.20;4.37;;;13.10;39.50;;;;;;5052981;28;20173;-31
2022/04/30 05:09:14;;;;;;;5.70;4.25;;;13.20;39.40;;;;;;5052877;28;20410;-31
2022/04/30 05:11:40;;;;;;;13.00;4.70;;;13.20;39.50;;;;;;5052687;28;20207;-31
2022/04/30 05:14:06;;;;;;;6.65;4.97;;;13.30;39.50;;;;;;5052581;28;20693;-31
2022/04/30 05:16:32;;;;;;;4.90;4.40;;;13.30;39.50;;;;;;5052017;28;20205;-31
2022/04/30 05:18:58;;;;;;;10.93;5.40;;;13.40;39.40;;;;;;5052461;28;20223;-31
2022/04/30 05:21:25;;;;;;;6.50;4.47;;;13.40;39.30;;;;;;5052480;28;20195;-31
2022/04/30 05:23:51;;;;;;;6.85;5.13;;;13.40;39.30;;;;;;5052748;28;20197;-31
2022/04/30 05:26:17;;;;;;;6.60;4.23;;;13.50;39.30;;;;;;5052403;28;20201;-31
2022/04/30 05:28:42;;;;;;;6.83;4.87;;;13.60;39.20;;;;;;5052479;28;20166;-31
2022/04/30 05:31:08;;;;;;;9.77;4.57;;;13.60;39.20;;;;;;5052164;28;20428;-31
2022/04/30 05:33:35;;;;;;;5.60;4.00;;;13.60;39.10;;;;;;5052268;28;20215;-31
2022/04/30 05:36:02;;;;;;;8.75;4.57;;;13.70;39.10;;;;;;5052436;28;20647;-31
2022/04/30 05:38:27;;;;;;;8.05;5.32;;;13.70;39.10;;;;;;5052163;28;20197;-31
2022/04/30 05:40:53;;;;;;;8.80;6.20;;;13.80;39.00;;;;;;5051933;28;20182;-31
2022/04/30 05:43:19;;;;;;;7.07;4.53;;;13.80;39.00;;;;;;5052162;28;20170;-31
2022/04/30 05:45:45;;;;;;;7.53;5.20;;;13.80;38.90;;;;;;5052312;28;20189;-31
2022/04/30 05:48:11;;;;;;;7.67;4.80;;;13.90;39.00;;;;;;5052185;28;20344;-31
2022/04/30 05:50:37;;;;;;;12.48;4.50;;;14.00;38.90;;;;;;5051930;28;20517;-31
2022/04/30 05:53:04;;;;;;;7.33;4.60;;;14.00;38.80;;;;;;5052043;28;20178;-31
2022/04/30 05:55:30;;;;;;;8.65;4.78;;;14.00;38.90;;;;;;5052253;28;20420;-31
2022/04/30 05:57:56;;;;;;;9.10;5.53;;;14.10;38.80;;;;;;5052140;28;20304;-31
2022/04/30 06:00:22;;;;;;;8.63;5.50;;;14.10;38.70;;;;;;5050982;28;20491;-31
2022/04/30 06:02:48;;;;;;;10.37;4.50;;;14.20;38.70;;;;;;5052004;28;20173;-31
2022/04/30 06:05:14;;;;;;;8.65;5.05;;;14.30;38.60;;;;;;5052020;28;20243;-31
2022/04/30 06:07:40;;;;;;;6.38;4.90;;;14.30;38.40;;;;;;5051857;28;20643;-31
2022/04/30 06:10:06;;;;;;;10.90;4.57;;;14.40;38.30;;;;;;5051756;28;20204;-31
2022/04/30 06:12:34;;;;;;;6.30;4.05;;;14.40;38.20;;;;;;5051649;28;20180;-31
2022/04/30 06:15:01;;;;;;;5.90;3.60;;;14.50;38.10;;;;;;5052115;28;20264;-31
2022/04/30 06:17:27;;;;;;;9.50;5.47;;;14.60;37.90;;;;;;5052201;28;20193;-31
2022/04/30 06:19:52;;;;;;;4.70;3.80;;;14.60;37.90;;;;;;5052126;28;20200;-31
2022/04/30 06:22:18;;;;;;;6.20;3.80;;;14.60;38.00;;;;;;5051947;28;20631;-31
2022/04/30 06:24:44;;;;;;;6.87;4.10;;;14.70;37.90;;;;;;5051629;28;20161;-31
2022/04/30 06:27:09;;;;;;;14.07;4.60;;;14.80;37.70;;;;;;5051885;28;20177;-31
2022/04/30 06:29:35;;;;;;;7.50;4.40;;;14.90;37.70;;;;;;5054383;28;20560;-31
2022/04/30 06:32:01;;;;;;;11.40;4.50;;;14.90;37.70;;;;;;5055656;28;20513;-31
2022/04/30 06:34:27;;;;;;;7.18;5.93;;;15.00;37.60;;;;;;5055946;28;20177;-31
2022/04/30 06:36:53;;;;;;;5.20;4.63;;;15.00;37.50;;;;;;5055904;28;20690;-31
2022/04/30 06:39:19;;;;;;;6.90;5.07;;;15.10;37.50;;;;;;5055619;28;20704;-31
2022/04/30 06:41:45;;;;;;;7.18;5.28;;;15.20;37.40;;;;;;5055313;28;20259;-31
2022/04/30 06:44:11;;;;;;;11.13;5.43;;;15.30;37.50;;;;;;5055382;28;20181;-31
2022/04/30 06:46:36;;;;;;;7.47;5.37;;;15.30;36.70;;;;;;5055671;28;20531;-31
2022/04/30 06:49:02;;;;;;;5.77;4.10;;;15.40;36.60;;;;;;5055597;28;20172;-32
2022/04/30 06:51:28;;;;;;;11.33;5.33;;;15.40;36.70;;;;;;5055015;28;20235;-32
2022/04/30 06:59:22;;;;;;;6.85;5.53;;;16.70;37.20;;;;;;5054942;28;20216;-32
2022/04/30 07:02:00;;;;;;;7.60;5.60;;;15.70;36.30;;;;;;5055154;28;20635;-32
2022/04/30 07:04:28;;;;;;;7.63;5.63;;;15.80;36.20;;;;;;5054704;28;20515;-32
2022/04/30 07:06:54;;;;;;;6.45;5.03;;;15.90;36.40;;;;;;5054912;28;20181;-32
2022/04/30 07:09:20;;;;;;;9.17;5.80;;;16.00;36.40;;;;;;5054978;28;20183;-32
2022/04/30 07:11:45;;;;;;;6.50;4.70;;;16.10;36.40;;;;;;5054632;28;20201;-32
2022/04/30 07:14:11;;;;;;;8.57;5.77;;;16.20;36.40;;;;;;5055144;28;20446;-32
2022/04/30 07:16:38;;;;;;;8.83;5.70;;;16.30;36.30;;;;;;5054835;28;20559;-32
2022/04/30 07:19:04;;;;;;;9.93;5.20;;;16.40;36.10;;;;;;5054731;28;20256;-32
2022/04/30 07:21:31;;;;;;;7.53;4.95;;;16.50;36.00;;;;;;5054291;28;20217;-32
2022/04/30 07:24:00;;;;;;;6.68;4.88;;;16.60;36.00;;;;;;5054985;28;20180;-32
2022/04/30 07:26:27;;;;;;;7.90;5.43;;;16.70;36.00;;;;;;5036678;28;20192;-32
2022/04/30 07:28:52;;;;;;;10.27;4.80;;;16.70;35.90;;;;;;5054548;28;20172;-32
2022/04/30 07:31:19;;;;;;;7.50;5.30;;;16.80;35.90;;;;;;5054559;28;20193;-32
2022/04/30 07:33:44;;;;;;;9.90;5.65;;;16.90;35.60;;;;;;5054638;28;20525;-32
2022/04/30 07:36:10;;;;;;;7.67;4.87;;;17.00;35.40;;;;;;5054441;28;20192;-32
2022/04/30 07:38:37;;;;;;;6.63;5.23;;;17.00;35.30;;;;;;5054376;28;20487;-32
2022/04/30 07:41:03;;;;;;;6.05;4.68;;;17.10;35.30;;;;;;5053457;28;20678;-32
2022/04/30 07:43:29;;;;;;;6.30;5.03;;;17.10;35.10;;;;;;5054275;28;20208;-32
2022/04/30 07:45:54;;;;;;;8.50;5.80;;;17.20;35.10;;;;;;5054292;28;20161;-32
2022/04/30 07:48:20;;;;;;;6.57;4.93;;;17.20;35.10;;;;;;5054245;28;20412;-32
2022/04/30 07:50:46;;;;;;;7.77;5.13;;;17.30;35.00;;;;;;5053888;28;20193;-32
2022/04/30 07:53:14;;;;;;;7.83;4.90;;;17.40;34.50;;;;;;5053817;28;20177;-32
2022/04/30 07:55:41;;;;;;;4.95;4.45;;;17.40;34.80;;;;;;5053077;28;20169;-32
2022/04/30 07:58:07;;;;;;;7.60;4.07;;;17.40;34.80;;;;;;5053919;28;20725;-32
2022/04/30 08:00:33;;;;;;;5.97;4.32;;;17.50;34.60;;;;;;5053827;28;20208;-32
2022/04/30 08:03:03;;;;;;;7.90;5.23;;;17.50;34.30;;;;;;5053986;28;20170;-32
2022/04/30 08:05:29;;;;;;;5.00;3.83;;;17.50;34.50;;;;;;5054043;28;20224;-32
2022/04/30 08:07:56;;;;;;;5.70;4.55;;;17.60;34.30;;;;;;5053863;28;20173;-32
2022/04/30 08:10:23;;;;;;;4.38;3.13;;;17.60;34.20;;;;;;5053716;28;20229;-32
2022/04/30 08:12:56;;;;;;;7.65;4.70;;;17.70;34.40;;;;;;5053776;28;20204;-32
2022/04/30 08:15:23;;;;;;;5.28;3.60;;;17.80;33.70;;;;;;5053801;28;20201;-32
2022/04/30 08:17:48;;;;;;;6.18;4.40;;;17.90;33.80;;;;;;5054054;28;20208;-32
2022/04/30 08:20:14;;;;;;;5.83;3.60;;;18.00;33.80;;;;;;5052347;28;20207;-32
2022/04/30 08:22:40;;;;;;;4.65;3.65;;;18.00;33.30;;;;;;5053481;28;20171;-32
2022/04/30 08:25:06;;;;;;;6.20;4.77;;;16.80;32.00;;;;;;5053524;28;20173;-32
2022/04/30 08:27:32;;;;;;;7.97;3.90;;;18.10;32.90;;;;;;5053722;28;20231;-32
2022/04/30 08:29:58;;;;;;;9.93;4.88;;;18.20;32.70;;;;;;5053357;28;20197;-32
2022/04/30 08:32:25;;;;;;;5.67;4.30;;;18.30;32.40;;;;;;5053130;28;20177;-32
2022/04/30 08:34:51;;;;;;;5.25;3.65;;;18.50;32.60;;;;;;5053205;28;20235;-32
2022/04/30 08:37:17;;;;;;;6.03;3.22;;;18.60;32.20;;;;;;5053593;28;20223;-32
2022/04/30 08:39:44;;;;;;;6.60;3.43;;;18.70;32.70;;;;;;5053264;28;20628;-32
2022/04/30 08:42:12;;;;;;;7.15;4.65;;;18.90;32.90;;;;;;5053240;28;20404;-32
2022/04/30 08:44:38;;;;;;;4.25;3.75;;;19.10;32.90;;;;;;5053143;28;20571;-32
2022/04/30 08:47:05;;;;;;;9.05;5.22;;;19.20;32.70;;;;;;5073495;22;20316;-34
2022/04/30 08:49:32;;;;;;;7.15;5.35;;;19.40;31.00;;;;;;5033555;28;20263;-34
2022/04/30 08:51:57;;;;;;;6.85;3.88;;;19.50;31.40;;;;;;5032064;28;20174;-34
2022/04/30 08:54:24;;;;;;;8.07;4.87;;;19.60;31.80;;;;;;5033162;28;20181;-35
2022/04/30 08:56:56;;;;;;;5.40;4.35;;;19.70;31.30;;;;;;5032920;28;20202;-36
2022/04/30 08:59:23;;;;;;;6.03;4.40;;;19.90;30.90;;;;;;5033034;28;20651;-36
2022/04/30 09:01:50;;;;;;;4.70;3.92;;;19.90;29.80;;;;;;5032932;28;20174;-36
2022/04/30 09:04:17;;;;;;;5.78;4.00;;;20.00;30.90;;;;;;5033087;28;20631;-35
2022/04/30 09:06:47;;;;;;;4.45;3.65;;;20.10;31.10;;;;;;5032963;28;20697;-35
2022/04/30 09:09:22;;;;;;;5.78;4.38;;;20.30;31.20;;;;;;5032814;28;20177;-35
2022/04/30 09:11:48;;;;;;;7.22;4.40;;;20.50;31.20;;;;;;5031555;28;20231;-34
2022/04/30 09:14:21;;;;;;;6.20;4.73;;;20.60;30.20;;;;;;5032316;28;20197;-34
2022/04/30 09:16:47;;;;;;;7.63;4.40;;;20.70;30.30;;;;;;5032562;28;20196;-35
2022/04/30 09:19:13;;;;;;;8.10;4.30;;;20.90;30.90;;;;;;5032756;28;20171;-34
2022/04/30 09:21:48;;;;;;;6.10;4.50;;;21.10;31.00;;;;;;5032390;28;20200;-35
2022/04/30 09:24:20;;;;;;;7.43;4.90;;;21.20;30.30;;;;;;5109945;27;20499;-35
2022/04/30 09:26:46;;;;;;;6.20;4.77;;;21.30;28.90;;;;;;5109755;28;20187;-35
2022/04/30 09:29:24;;;;;;;5.17;4.67;;;21.30;28.70;;;;;;5109868;28;20550;-35
2022/04/30 09:31:51;;;;;;;5.97;3.90;;;21.30;28.00;;;;;;5109563;28;20185;-35
2022/04/30 09:39:50;;;;;;;9.68;5.38;;;21.10;26.90;;;;;;5109612;28;20269;-35
2022/04/30 09:42:17;;;;;;;5.20;4.57;;;21.10;27.50;;;;;;5109300;28;20191;-35
2022/04/30 09:44:43;;;;;;;5.25;3.65;;;21.20;28.80;;;;;;5109619;28;20183;-35
2022/04/30 09:47:09;;;;;;;6.07;4.90;;;21.30;26.50;;;;;;5109473;28;20202;-35
2022/04/30 09:55:05;;;;;;;7.40;5.57;;;21.30;26.30;;;;;;5109777;28;20672;-35
2022/04/30 09:57:34;;;;;;;6.83;5.17;;;21.50;27.40;;;;;;5109589;28;20474;-35
2022/04/30 10:00:00;;;;;;;7.30;4.50;;;21.60;26.60;;;;;;5109302;28;20488;-35
2022/04/30 10:02:31;;;;;;;5.68;4.28;;;21.70;26.20;;;;;;5108878;28;20456;-35
2022/04/30 10:04:57;;;;;;;5.93;5.32;;;21.90;26.90;;;;;;5109242;28;20171;-35
2022/04/30 10:07:24;;;;;;;5.90;4.40;;;22.10;27.80;;;;;;5109001;28;20187;-35
2022/04/30 10:10:21;;;;;;;10.47;7.30;;;22.40;27.80;;;;;;5109254;28;20402;-35
2022/04/30 10:13:02;;;;;;;8.03;6.00;;;22.70;27.50;;;;;;5108948;28;20401;-35
2022/04/30 10:15:38;;;;;;;5.93;3.63;;;23.00;26.60;;;;;;5109021;28;20446;-35
2022/04/30 10:18:08;;;;;;;5.37;3.80;;;23.10;26.70;;;;;;5108915;28;20436;-36
2022/04/30 10:20:36;;;;;;;9.07;5.10;;;23.40;27.20;;;;;;5108909;28;20436;-36
2022/04/30 10:23:05;;;;;;;6.90;4.57;;;23.70;27.10;;;;;;5108566;28;20456;-36
2022/04/30 10:25:42;;;;;;;6.80;4.30;;;23.90;24.90;;;;;;5109123;28;20488;-36
2022/04/30 10:28:17;;;;;;;6.73;4.70;;;24.10;26.70;;;;;;5108918;28;20413;-36
2022/04/30 10:31:02;;;;;;;6.93;5.80;;;24.40;25.80;;;;;;5108448;28;20442;-36
2022/04/30 10:33:28;;;;;;;7.50;4.23;;;24.60;23.50;;;;;;5107484;28;20449;-36
2022/04/30 10:36:07;;;;;;;6.40;3.07;;;24.70;24.50;;;;;;5094311;28;20413;-36
2022/04/30 10:38:34;;;;;;;5.93;4.33;;;24.80;24.40;;;;;;5095113;28;20417;-36
2022/04/30 10:41:01;;;;;;;6.17;4.60;;;24.90;25.20;;;;;;5094954;28;20467;-36
2022/04/30 10:43:34;;;;;;;6.20;4.73;;;25.00;24.80;;;;;;5095099;28;20485;-36
2022/04/30 10:46:00;;;;;;;7.20;4.70;;;24.90;23.00;;;;;;5094926;28;20413;-36
2022/04/30 10:48:26;;;;;;;5.93;4.37;;;24.90;22.90;;;;;;5094765;28;20417;-36
2022/04/30 10:51:09;;;;;;;6.70;5.00;;;24.90;24.40;;;;;;5094580;28;20402;-36
2022/04/30 10:53:39;;;;;;;6.80;3.90;;;24.90;24.50;;;;;;5094620;28;20413;-36
2022/04/30 10:56:06;;;;;;;8.53;4.20;;;24.90;24.50;;;;;;5094584;28;20917;-36
2022/04/30 10:58:33;;;;;;;5.03;4.13;;;24.80;23.20;;;;;;5094630;28;20527;-36
2022/04/30 11:01:14;;;;;;;10.27;4.30;;;24.80;24.30;;;;;;5094341;28;20402;-36
2022/04/30 11:03:44;;;;;;;6.67;4.60;;;24.80;24.30;;;;;;5094387;28;20469;-36
2022/04/30 11:06:12;;;;;;;8.70;5.00;;;24.90;24.50;;;;;;5094325;28;20406;-36
2022/04/30 11:08:38;;;;;;;7.90;4.43;;;24.90;23.90;;;;;;5094363;28;20394;-36
2022/04/30 11:11:04;;;;;;;5.47;4.47;;;24.90;23.80;;;;;;5094141;28;20406;-36
2022/04/30 11:13:29;;;;;;;5.30;3.60;;;24.90;24.00;;;;;;5094344;28;20440;-36
2022/04/30 11:15:59;;;;;;;7.40;4.17;;;25.00;24.50;;;;;;5092336;28;20674;-36
2022/04/30 11:18:25;;;;;;;6.73;4.10;;;25.10;24.10;;;;;;5094264;28;20172;-36
2022/04/30 11:21:01;;;;;;;4.40;3.60;;;25.20;22.80;;;;;;5093265;28;20509;-36
2022/04/30 11:23:28;;;;;;;8.03;4.57;;;25.50;23.30;;;;;;5093813;28;20453;-36
2022/04/30 11:25:54;;;;;;;6.57;3.90;;;25.70;22.30;;;;;;5093916;28;20397;-36
2022/04/30 11:28:27;;;;;;;5.07;3.73;;;25.90;22.90;;;;;;5093938;28;20402;-36
2022/04/30 11:30:58;;;;;;;8.27;4.87;;;26.10;22.40;;;;;;5093748;28;20251;-36
2022/04/30 11:33:36;;;;;;;6.63;4.33;;;26.30;22.70;;;;;;5092399;28;20430;-36
2022/04/30 11:36:02;;;;;;;9.57;4.93;;;26.30;20.00;;;;;;5093630;28;20929;-36
2022/04/30 11:38:28;;;;;;;5.43;4.40;;;26.40;19.50;;;;;;5093918;28;20496;-36
2022/04/30 11:41:03;;;;;;;7.83;5.20;;;26.20;20.20;;;;;;5093578;28;20412;-36
2022/04/30 11:43:29;;;;;;;5.63;4.57;;;26.20;21.50;;;;;;5093588;28;20199;-36
2022/04/30 11:46:02;;;;;;;7.00;4.10;;;26.30;22.60;;;;;;5092648;28;20404;-36
2022/04/30 11:48:38;;;;;;;6.90;3.50;;;26.30;20.50;;;;;;5093765;28;20188;-36
2022/04/30 11:51:04;;;;;;;7.53;4.53;;;26.30;21.00;;;;;;5093604;28;20392;-36
2022/04/30 11:53:30;;;;;;;5.43;4.40;;;26.20;22.10;;;;;;5093725;28;20463;-36
2022/04/30 11:55:56;;;;;;;7.50;4.10;;;26.20;22.70;;;;;;5093614;28;20398;-36
2022/04/30 11:58:21;;;;;;;5.50;4.00;;;26.20;22.30;;;;;;5093702;28;20578;-36
2022/04/30 12:00:52;;;;;;;4.40;3.20;;;26.20;21.00;;;;;;5093205;28;20628;-35
2022/04/30 12:03:28;;;;;;;4.90;4.40;;;26.10;20.60;;;;;;5093479;28;20210;-35
2022/04/30 12:05:53;;;;;;;9.67;5.50;;;25.80;18.80;;;;;;5093217;28;20394;-35
2022/04/30 12:08:19;;;;;;;5.77;4.73;;;25.60;19.30;;;;;;5093541;28;20947;-35
2022/04/30 12:10:55;;;;;;;5.30;3.97;;;25.50;20.00;;;;;;5093025;28;20170;-35
2022/04/30 12:13:24;;;;;;;6.63;4.70;;;25.60;20.00;;;;;;5093485;28;20164;-36
2022/04/30 12:16:02;;;;;;;4.20;3.80;;;25.70;20.30;;;;;;5093384;28;20402;-36
2022/04/30 12:27:02;;;;;;;5.60;3.90;;;25.10;20.20;;;;;;5093061;28;20939;-36
2022/04/30 12:29:29;;;;;;;5.77;4.13;;;25.00;22.60;;;;;;5092848;28;20873;-36
2022/04/30 12:31:54;;;;;;;7.97;4.23;;;25.10;22.50;;;;;;5092828;28;20826;-36
2022/04/30 12:34:22;;;;;;;6.53;4.13;;;25.20;21.60;;;;;;5092781;28;20493;-36
2022/04/30 12:36:55;;;;;;;5.20;3.80;;;25.40;22.00;;;;;;5092675;28;20655;-36
2022/04/30 12:39:23;;;;;;;5.27;4.27;;;25.70;23.00;;;;;;5092534;28;20820;-36
2022/04/30 12:41:52;;;;;;;5.97;4.70;;;25.90;22.20;;;;;;5092468;28;20410;-36
2022/04/30 12:44:18;;;;;;;4.67;3.63;;;26.20;22.20;;;;;;5092618;28;21032;-36
2022/04/30 12:46:45;;;;;;;7.43;4.87;;;26.50;21.90;;;;;;5092618;28;20446;-36
2022/04/30 12:49:12;;;;;;;5.07;4.10;;;26.60;21.40;;;;;;5092424;28;20929;-36
2022/04/30 12:51:42;;;;;;;5.20;4.07;;;26.70;21.50;;;;;;5092185;28;20390;-36
2022/04/30 12:54:13;;;;;;;4.57;3.60;;;26.80;21.30;;;;;;5092376;28;20501;-36
2022/04/30 12:56:40;;;;;;;8.77;3.90;;;26.80;21.40;;;;;;5090707;28;20544;-36
2022/04/30 12:59:07;;;;;;;6.30;4.70;;;26.80;21.30;;;;;;5092254;28;20897;-36
2022/04/30 13:01:37;;;;;;;6.97;4.73;;;26.70;21.50;;;;;;5092336;28;20422;-36
2022/04/30 13:04:03;;;;;;;5.93;4.50;;;26.60;20.70;;;;;;5092198;28;20960;-36
2022/04/30 13:06:30;;;;;;;5.17;4.20;;;26.50;21.20;;;;;;5092162;28;20422;-36
2022/04/30 13:14:28;;;;;;;4.17;3.30;;;26.10;21.50;;;;;;5092523;28;20413;-36
2022/04/30 13:16:54;;;;;;;3.80;3.40;;;26.20;21.90;;;;;;5092091;28;20433;-36
2022/04/30 13:19:20;;;;;;;3.93;3.43;;;26.50;22.40;;;;;;5092257;28;20410;-35
2022/04/30 13:21:49;;;;;;;5.63;3.80;;;26.90;20.90;;;;;;5091946;28;20444;-36
2022/04/30 13:24:15;;;;;;;4.40;4.00;;;27.10;19.40;;;;;;5091962;28;20465;-35
2022/04/30 13:26:42;;;;;;;4.60;3.90;;;27.30;19.50;;;;;;5092033;28;20786;-36
2022/04/30 13:29:10;;;;;;;3.37;2.97;;;27.40;19.20;;;;;;5092206;28;20901;-36
2022/04/30 13:31:37;;;;;;;5.13;4.30;;;27.60;18.70;;;;;;5092487;28;20413;-36
2022/04/30 13:34:04;;;;;;;5.43;4.00;;;27.80;19.80;;;;;;5092593;28;20437;-36
2022/04/30 13:36:32;;;;;;;5.10;3.70;;;27.90;20.10;;;;;;5091908;28;20424;-36
2022/04/30 13:38:59;;;;;;;5.27;3.43;;;28.00;20.10;;;;;;5091888;28;20865;-36